createdAt,value
2019-02-27T00:00:06.468Z,54.20
2019-02-27T00:02:33.110Z,54.29
2019-02-27T00:04:59.721Z,54.00
2019-02-27T00:07:26.240Z,54.00
2019-02-27T00:09:52.812Z,54.69
2019-02-27T00:12:20.023Z,55.14
2019-02-27T00:14:47.013Z,54.92
2019-02-27T00:17:15.113Z,54.61
2019-02-27T00:19:42.051Z,54.86
2019-02-27T00:22:08.831Z,55.18
2019-02-27T00:24:35.340Z,56.27
2019-02-27T00:27:01.966Z,54.87
2019-02-27T00:29:28.981Z,54.92
2019-02-27T00:31:56.023Z,55.72
2019-02-27T00:34:22.541Z,55.48
2019-02-27T00:36:49.164Z,56.03
2019-02-27T00:39:15.832Z,55.02
2019-02-27T00:41:43.110Z,54.85
2019-02-27T00:44:11.146Z,54.98
2019-02-27T00:46:38.037Z,55.06
2019-02-27T00:49:04.568Z,55.05
2019-02-27T00:51:31.370Z,55.77
2019-02-27T00:53:58.450Z,55.61
2019-02-27T00:56:25.751Z,56.14
2019-02-27T00:58:52.279Z,56.35
2019-02-27T01:01:19.028Z,57.01
2019-02-27T01:03:45.653Z,56.91
2019-02-27T01:06:14.680Z,56.34
2019-02-27T01:08:40.965Z,56.39
2019-02-27T01:11:07.493Z,55.97
2019-02-27T01:13:34.132Z,56.61
2019-02-27T01:16:00.800Z,56.58
2019-02-27T01:18:30.382Z,56.93
2019-02-27T01:20:55.781Z,57.29
2019-02-27T01:23:22.339Z,57.32
2019-02-27T01:25:48.951Z,57.27
2019-02-27T01:28:15.583Z,57.19
2019-02-27T01:30:42.216Z,57.31
2019-02-27T01:33:08.873Z,56.96
2019-02-27T01:35:35.498Z,57.07
2019-02-27T01:38:05.070Z,57.22
2019-02-27T01:40:30.529Z,57.88
2019-02-27T01:42:57.085Z,57.39
2019-02-27T01:45:23.600Z,57.38
2019-02-27T01:47:50.152Z,57.40
2019-02-27T01:50:27.919Z,57.64
2019-02-27T01:52:54.612Z,58.16
2019-02-27T01:55:22.432Z,58.18
2019-02-27T01:57:49.265Z,58.42
2019-02-27T02:00:15.896Z,58.89
2019-02-27T02:02:42.522Z,59.87
2019-02-27T02:05:09.141Z,60.49
2019-02-27T02:07:39.903Z,60.23
2019-02-27T02:10:04.667Z,60.46
2019-02-27T02:12:31.871Z,60.05
2019-02-27T02:15:31.588Z,59.93
2019-02-27T02:18:49.062Z,60.55
2019-02-27T02:21:53.151Z,60.89
2019-02-27T02:24:46.348Z,61.43
2019-02-27T02:27:57.621Z,60.96
2019-02-27T02:31:15.688Z,61.95
2019-02-27T02:34:40.857Z,62.06
2019-02-27T02:37:49.097Z,62.34
2019-02-27T02:41:00.662Z,62.79
2019-02-27T02:44:05.022Z,62.99
2019-02-27T02:47:06.117Z,62.98
2019-02-27T02:49:58.640Z,63.26
2019-02-27T02:52:49.665Z,63.91
2019-02-27T02:55:49.005Z,63.49
2019-02-27T02:58:32.511Z,63.45
2019-02-27T03:01:24.031Z,63.51
2019-02-27T03:04:31.413Z,64.69
2019-02-27T03:07:17.191Z,64.50
2019-02-27T03:10:43.954Z,64.12
2019-02-27T03:13:48.630Z,64.18
2019-02-27T03:16:47.707Z,64.19
2019-02-27T03:19:53.327Z,63.89
2019-02-27T03:22:53.543Z,64.03
2019-02-27T03:25:59.387Z,64.24
2019-02-27T03:28:54.756Z,64.15
2019-02-27T03:31:44.639Z,64.08
2019-02-27T03:34:34.130Z,64.49
2019-02-27T03:37:38.175Z,64.59
2019-02-27T03:40:32.311Z,64.49
2019-02-27T03:43:46.102Z,65.16
2019-02-27T03:46:41.990Z,64.85
2019-02-27T03:49:40.673Z,64.99
2019-02-27T03:52:44.373Z,65.43
2019-02-27T03:55:38.033Z,65.15
2019-02-27T03:58:31.774Z,65.75
2019-02-27T04:01:30.510Z,65.57
2019-02-27T04:04:50.215Z,65.87
2019-02-27T04:07:31.835Z,65.76
2019-02-27T04:09:57.823Z,66.14
2019-02-27T04:12:24.511Z,66.12
2019-02-27T04:14:51.168Z,65.91
2019-02-27T04:17:26.309Z,66.22
2019-02-27T04:19:52.957Z,66.40
2019-02-27T04:22:19.527Z,66.33
2019-02-27T04:24:46.253Z,66.96
2019-02-27T04:27:12.855Z,67.71
2019-02-27T04:29:41.235Z,67.85
2019-02-27T04:32:09.541Z,67.17
2019-02-27T04:34:36.897Z,67.47
2019-02-27T04:37:03.551Z,67.58
2019-02-27T04:39:30.445Z,67.27
2019-02-27T04:41:57.101Z,67.38
2019-02-27T04:44:23.750Z,67.96
2019-02-27T04:46:54.812Z,67.93
2019-02-27T04:49:18.995Z,68.38
2019-02-27T04:51:48.134Z,67.89
2019-02-27T04:54:14.588Z,68.01
2019-02-27T04:56:41.258Z,67.99
2019-02-27T04:59:07.823Z,68.19
2019-02-27T05:01:36.632Z,68.33
2019-02-27T05:04:03.249Z,67.84
2019-02-27T05:06:30.044Z,68.58
2019-02-27T05:08:59.695Z,68.45
2019-02-27T05:11:26.982Z,68.60
2019-02-27T05:13:54.248Z,69.00
2019-02-27T05:16:21.605Z,68.31
2019-02-27T05:18:48.402Z,68.42
2019-02-27T05:21:18.929Z,68.29
2019-02-27T05:23:43.800Z,68.56
2019-02-27T05:26:10.584Z,69.00
2019-02-27T05:28:37.263Z,69.22
2019-02-27T05:31:03.895Z,68.79
2019-02-27T05:33:35.676Z,68.97
2019-02-27T05:35:59.469Z,68.89
2019-02-27T05:38:26.128Z,68.87
2019-02-27T05:40:52.876Z,68.95
2019-02-27T05:43:19.434Z,69.63
2019-02-27T05:45:46.108Z,69.95
2019-02-27T05:48:12.774Z,69.74
2019-02-27T05:50:39.436Z,69.43
2019-02-27T05:53:06.262Z,69.33
2019-02-27T05:55:32.840Z,69.39
2019-02-27T05:57:59.497Z,69.97
2019-02-27T06:00:26.231Z,70.45
2019-02-27T06:02:52.998Z,70.14
2019-02-27T06:05:19.826Z,70.54
2019-02-27T06:07:46.500Z,70.39
2019-02-27T06:10:13.590Z,70.71
2019-02-27T06:12:40.973Z,70.54
2019-02-27T06:15:10.575Z,70.38
2019-02-27T06:17:43.401Z,71.28
2019-02-27T06:20:08.013Z,70.26
2019-02-27T06:22:34.917Z,70.26
2019-02-27T06:25:01.744Z,70.59
2019-02-27T06:27:28.503Z,70.91
2019-02-27T06:29:57.038Z,71.49
2019-02-27T06:32:23.740Z,70.93
2019-02-27T06:34:50.289Z,71.17
2019-02-27T06:37:16.838Z,71.43
2019-02-27T06:39:43.617Z,71.13
2019-02-27T06:42:10.234Z,70.82
2019-02-27T06:44:39.238Z,70.64
2019-02-27T06:47:07.142Z,70.43
2019-02-27T06:49:33.860Z,70.06
2019-02-27T06:52:00.440Z,69.88
2019-02-27T06:54:26.992Z,69.41
2019-02-27T06:56:53.644Z,68.94
2019-02-27T06:59:24.803Z,69.14
2019-02-27T07:01:48.962Z,68.62
2019-02-27T07:04:15.618Z,68.22
2019-02-27T07:06:42.386Z,68.08
2019-02-27T07:09:11.323Z,67.40
2019-02-27T07:11:37.608Z,67.28
2019-02-27T07:14:04.398Z,67.00
2019-02-27T07:16:30.981Z,66.47
2019-02-27T07:18:57.724Z,65.92
2019-02-27T07:21:24.365Z,65.21
2019-02-27T07:23:51.223Z,65.15
2019-02-27T07:26:17.938Z,64.57
2019-02-27T07:28:44.704Z,64.12
2019-02-27T07:31:12.477Z,63.27
2019-02-27T07:33:40.563Z,62.63
2019-02-27T07:36:07.773Z,61.87
2019-02-27T07:38:34.478Z,61.26
2019-02-27T07:41:01.567Z,61.43
2019-02-27T07:43:28.536Z,60.78
2019-02-27T07:45:55.298Z,59.76
2019-02-27T07:48:21.835Z,58.72
2019-02-27T07:50:49.307Z,57.37
2019-02-27T07:53:17.683Z,57.33
2019-02-27T07:55:44.860Z,56.44
2019-02-27T07:58:11.543Z,56.17
2019-02-27T08:00:38.299Z,56.00
2019-02-27T08:03:09.221Z,56.58
2019-02-27T08:05:33.823Z,53.97
2019-02-27T08:08:00.530Z,54.80
2019-02-27T08:10:27.464Z,54.94
2019-02-27T08:12:56.520Z,52.77
2019-02-27T08:15:23.044Z,54.30
2019-02-27T08:17:49.871Z,53.80
2019-02-27T08:20:20.454Z,53.45
2019-02-27T08:22:46.663Z,52.16
2019-02-27T08:25:13.711Z,51.67
2019-02-27T08:27:43.045Z,50.78
2019-02-27T08:30:14.406Z,51.23
2019-02-27T08:32:41.112Z,50.07
2019-02-27T08:35:08.978Z,49.66
2019-02-27T08:37:35.662Z,47.58
2019-02-27T08:40:02.469Z,49.74
2019-02-27T08:42:29.401Z,47.81
2019-02-27T08:44:56.093Z,45.76
2019-02-27T08:47:22.981Z,45.01
2019-02-27T08:49:49.656Z,40.86
2019-02-27T08:52:16.436Z,37.00
2019-02-27T08:54:43.091Z,36.61
2019-02-27T08:57:09.856Z,31.84
2019-02-27T08:59:36.945Z,30.39
2019-02-27T09:02:05.869Z,28.98
2019-02-27T09:04:32.548Z,26.33
2019-02-27T09:07:02.712Z,25.08
2019-02-27T09:09:28.055Z,21.99
2019-02-27T09:11:54.728Z,23.16
2019-02-27T09:14:21.396Z,23.02
2019-02-27T09:16:48.071Z,24.69
2019-02-27T09:19:14.810Z,25.28
2019-02-27T09:21:41.530Z,24.99
2019-02-27T09:24:08.189Z,23.39
2019-02-27T09:26:36.847Z,22.73
2019-02-27T09:29:03.644Z,21.74
2019-02-27T09:31:30.468Z,21.08
2019-02-27T09:33:57.347Z,20.38
2019-02-27T09:36:24.022Z,20.21
2019-02-27T09:38:50.784Z,19.89
2019-02-27T09:41:17.772Z,19.11
2019-02-27T09:43:44.459Z,18.96
2019-02-27T09:46:11.270Z,18.64
2019-02-27T09:48:38.146Z,20.14
2019-02-27T09:51:04.896Z,18.99
2019-02-27T09:53:33.941Z,19.70
2019-02-27T09:56:00.496Z,20.13
2019-02-27T09:58:27.171Z,20.03
2019-02-27T10:00:59.170Z,20.33
2019-02-27T10:03:25.364Z,18.97
2019-02-27T10:05:52.049Z,18.85
2019-02-27T10:08:18.835Z,17.74
2019-02-27T10:10:46.074Z,17.80
2019-02-27T10:13:13.018Z,17.49
2019-02-27T10:15:39.803Z,16.91
2019-02-27T10:18:06.612Z,16.42
2019-02-27T10:20:36.970Z,15.91
2019-02-27T10:23:02.145Z,16.00
2019-02-27T10:25:28.807Z,15.30
2019-02-27T10:27:55.488Z,15.49
2019-02-27T10:30:22.403Z,15.53
2019-02-27T10:32:49.278Z,15.87
2019-02-27T10:35:16.141Z,16.39
2019-02-27T10:37:42.989Z,17.75
2019-02-27T10:40:11.484Z,18.18
2019-02-27T10:42:38.828Z,19.38
2019-02-27T10:45:09.808Z,19.29
2019-02-27T10:47:36.502Z,19.44
2019-02-27T10:50:04.037Z,18.99
2019-02-27T10:52:30.826Z,18.64
2019-02-27T10:54:57.612Z,17.69
2019-02-27T10:57:24.291Z,16.97
2019-02-27T10:59:50.973Z,16.86
2019-02-27T11:02:17.655Z,17.08
2019-02-27T11:04:44.438Z,17.23
2019-02-27T11:07:13.208Z,17.77
2019-02-27T11:09:41.220Z,16.47
2019-02-27T11:12:08.473Z,15.79
2019-02-27T11:14:35.169Z,16.12
2019-02-27T11:17:02.548Z,16.02
2019-02-27T11:19:30.047Z,16.12
2019-02-27T11:21:58.323Z,16.22
2019-02-27T11:24:25.453Z,15.56
2019-02-27T11:26:52.134Z,16.33
2019-02-27T11:29:23.578Z,16.60
2019-02-27T11:31:47.447Z,16.97
2019-02-27T11:34:16.091Z,16.95
2019-02-27T11:36:42.814Z,16.91
2019-02-27T11:39:09.931Z,17.45
2019-02-27T11:41:36.507Z,16.71
2019-02-27T11:44:03.177Z,16.33
2019-02-27T11:46:29.838Z,15.52
2019-02-27T11:48:57.045Z,15.39
2019-02-27T11:51:25.054Z,16.82
2019-02-27T11:53:52.000Z,18.08
2019-02-27T11:56:20.270Z,18.36
2019-02-27T11:58:47.248Z,18.05
2019-02-27T12:01:14.029Z,17.98
2019-02-27T12:03:45.699Z,18.53
2019-02-27T12:06:09.488Z,18.71
2019-02-27T12:08:36.555Z,19.92
2019-02-27T12:11:03.477Z,19.93
2019-02-27T12:13:32.348Z,21.77
2019-02-27T12:15:58.781Z,21.36
2019-02-27T12:18:25.455Z,22.87
2019-02-27T12:20:53.959Z,24.61
2019-02-27T12:23:20.984Z,25.04
2019-02-27T12:25:47.663Z,26.36
2019-02-27T12:28:15.216Z,26.79
2019-02-27T12:30:43.436Z,28.89
2019-02-27T12:33:10.185Z,29.80
2019-02-27T12:35:37.360Z,30.94
2019-02-27T12:38:08.119Z,31.86
2019-02-27T12:40:33.680Z,31.89
2019-02-27T12:43:00.521Z,31.08
2019-02-27T12:45:29.737Z,31.64
2019-02-27T12:49:48.021Z,31.97
2019-02-27T12:52:14.804Z,32.96
2019-02-27T12:54:41.482Z,32.82
2019-02-27T12:57:08.155Z,31.52
2019-02-27T12:59:34.848Z,32.64
2019-02-27T13:02:08.155Z,32.82
2019-02-27T13:04:30.827Z,34.75
2019-02-27T13:06:57.496Z,34.62
2019-02-27T13:09:24.678Z,33.97
2019-02-27T13:11:52.059Z,34.86
2019-02-27T13:14:18.848Z,34.64
2019-02-27T13:16:46.396Z,34.51
2019-02-27T13:19:14.277Z,34.92
2019-02-27T13:21:41.109Z,34.11
2019-02-27T13:24:08.072Z,35.00
2019-02-27T13:26:35.352Z,34.46
2019-02-27T13:29:02.245Z,34.97
2019-02-27T13:31:28.940Z,34.91
2019-02-27T13:33:55.835Z,34.79
2019-02-27T13:36:22.706Z,35.17
2019-02-27T13:38:52.123Z,34.86
2019-02-27T13:41:18.063Z,35.61
2019-02-27T13:43:44.862Z,35.66
2019-02-27T13:46:11.530Z,35.83
2019-02-27T13:48:39.817Z,34.69
2019-02-27T13:51:06.877Z,35.21
2019-02-27T13:53:33.657Z,35.44
2019-02-27T13:56:00.429Z,35.37
2019-02-27T13:58:27.225Z,34.98
2019-02-27T14:00:54.572Z,35.34
2019-02-27T14:03:21.603Z,34.64
2019-02-27T14:05:48.277Z,35.47
2019-02-27T14:08:15.090Z,35.12
2019-02-27T14:10:41.744Z,35.69
2019-02-27T14:13:09.668Z,35.14
2019-02-27T14:15:36.611Z,36.03
2019-02-27T14:18:03.385Z,35.55
2019-02-27T14:20:30.037Z,35.42
2019-02-27T14:22:56.814Z,36.50
2019-02-27T14:25:28.581Z,36.05
2019-02-27T14:27:53.120Z,36.44
2019-02-27T14:30:25.631Z,35.91
2019-02-27T14:32:52.286Z,36.18
2019-02-27T14:35:19.070Z,36.33
2019-02-27T14:37:49.679Z,36.20
2019-02-27T14:40:15.701Z,37.16
2019-02-27T14:42:42.377Z,36.42
2019-02-27T14:45:11.983Z,37.12
2019-02-27T14:47:38.742Z,36.67
2019-02-27T14:50:05.985Z,36.90
2019-02-27T14:52:32.644Z,36.50
2019-02-27T14:54:59.984Z,36.48
2019-02-27T14:57:28.261Z,36.61
2019-02-27T14:59:54.963Z,36.67
2019-02-27T15:02:22.921Z,35.79
2019-02-27T15:04:49.588Z,35.92
2019-02-27T15:07:16.154Z,36.28
2019-02-27T15:09:47.804Z,37.35
2019-02-27T15:12:11.529Z,36.77
2019-02-27T15:14:38.302Z,37.43
2019-02-27T15:17:05.163Z,36.85
2019-02-27T15:19:31.957Z,37.17
2019-02-27T15:21:58.798Z,38.10
2019-02-27T15:24:25.611Z,37.99
2019-02-27T15:26:52.242Z,37.85
2019-02-27T15:29:18.920Z,37.81
2019-02-27T15:31:45.742Z,38.24
2019-02-27T15:34:12.893Z,39.16
2019-02-27T15:36:39.602Z,38.82
2019-02-27T15:39:06.702Z,38.68
2019-02-27T15:41:35.415Z,39.31
2019-02-27T15:44:02.091Z,39.27
2019-02-27T15:46:28.903Z,40.39
2019-02-27T15:48:55.731Z,39.85
2019-02-27T15:51:22.546Z,40.99
2019-02-27T15:53:50.137Z,40.67
2019-02-27T15:56:17.729Z,41.35
2019-02-27T15:58:44.418Z,40.95
2019-02-27T16:01:11.283Z,41.00
2019-02-27T16:03:38.012Z,41.38
2019-02-27T16:06:05.588Z,42.18
2019-02-27T16:08:33.256Z,42.09
2019-02-27T16:11:00.024Z,42.01
2019-02-27T16:13:26.837Z,42.60
2019-02-27T16:15:53.578Z,42.86
2019-02-27T16:18:20.233Z,42.69
2019-02-27T16:20:49.882Z,43.11
2019-02-27T16:23:15.580Z,42.96
2019-02-27T16:25:42.371Z,44.04
2019-02-27T16:28:12.090Z,44.39
2019-02-27T16:30:37.746Z,44.79
2019-02-27T16:33:04.439Z,44.93
2019-02-27T16:35:31.148Z,46.08
2019-02-27T16:37:58.067Z,45.76
2019-02-27T16:40:25.098Z,46.70
2019-02-27T16:42:51.931Z,47.14
2019-02-27T16:45:20.924Z,47.28
2019-02-27T16:47:47.830Z,47.70
2019-02-27T16:50:16.603Z,48.40
2019-02-27T16:52:43.388Z,48.88
2019-02-27T16:55:13.289Z,49.04
2019-02-27T16:57:40.130Z,49.43
2019-02-27T17:00:07.903Z,49.86
2019-02-27T17:02:35.511Z,50.32
2019-02-27T17:05:05.784Z,50.20
2019-02-27T17:07:32.315Z,50.92
2019-02-27T17:09:59.347Z,51.58
2019-02-27T17:12:26.200Z,52.01
2019-02-27T17:14:55.446Z,51.95
2019-02-27T17:17:21.598Z,51.96
2019-02-27T17:19:48.316Z,52.35
2019-02-27T17:22:15.036Z,52.35
2019-02-27T17:24:41.747Z,53.72
2019-02-27T17:27:12.598Z,53.17
2019-02-27T17:29:37.257Z,53.29
2019-02-27T17:32:04.102Z,53.68
2019-02-27T17:34:30.801Z,53.79
2019-02-27T17:36:57.732Z,53.84
2019-02-27T17:39:28.984Z,54.22
2019-02-27T17:41:54.298Z,54.78
2019-02-27T17:44:20.985Z,55.27
2019-02-27T17:46:48.109Z,55.30
2019-02-27T17:49:14.721Z,55.12
2019-02-27T17:51:42.043Z,55.87
2019-02-27T17:54:09.041Z,55.63
2019-02-27T17:56:36.854Z,55.97
2019-02-27T17:59:05.328Z,57.45
2019-02-27T18:01:32.479Z,56.93
2019-02-27T18:03:59.244Z,57.62
2019-02-27T18:06:25.999Z,57.53
2019-02-27T18:08:52.683Z,57.96
2019-02-27T18:11:19.398Z,58.24
2019-02-27T18:13:47.717Z,58.75
2019-02-27T18:16:14.752Z,59.07
2019-02-27T18:18:43.995Z,58.91
2019-02-27T18:21:10.326Z,59.49
2019-02-27T18:23:37.185Z,59.80
2019-02-27T18:26:04.965Z,60.44
2019-02-27T18:28:32.941Z,61.41
2019-02-27T18:31:00.587Z,60.70
2019-02-27T18:33:27.195Z,60.67
2019-02-27T18:35:54.627Z,61.50
2019-02-27T18:38:21.578Z,62.68
2019-02-27T18:40:48.530Z,61.77
2019-02-27T18:43:16.290Z,61.85
2019-02-27T18:45:43.454Z,63.41
2019-02-27T18:48:10.797Z,63.59
2019-02-27T18:50:37.719Z,64.28
2019-02-27T18:53:07.518Z,63.37
2019-02-27T18:55:34.420Z,63.63
2019-02-27T18:58:02.281Z,64.04
2019-02-27T19:00:29.577Z,63.84
2019-02-27T19:02:56.564Z,64.01
2019-02-27T19:05:23.417Z,64.24
2019-02-27T19:07:53.648Z,65.43
2019-02-27T19:10:19.039Z,65.16
2019-02-27T19:12:46.860Z,65.25
2019-02-27T19:15:15.731Z,65.13
2019-02-27T19:17:42.712Z,66.08
2019-02-27T19:20:11.026Z,66.31
2019-02-27T19:22:37.832Z,66.85
2019-02-27T19:25:07.180Z,66.63
2019-02-27T19:27:34.074Z,67.19
2019-02-27T19:30:06.228Z,67.23
2019-02-27T19:32:29.642Z,67.61
2019-02-27T19:34:56.321Z,67.32
2019-02-27T19:37:24.368Z,67.76
2019-02-27T19:39:53.346Z,68.39
2019-02-27T19:42:19.809Z,68.33
2019-02-27T19:44:46.652Z,68.60
2019-02-27T19:47:13.391Z,68.28
2019-02-27T19:49:40.051Z,68.67
2019-02-27T19:52:07.068Z,69.47
2019-02-27T19:54:33.903Z,69.60
2019-02-27T19:57:00.731Z,70.12
2019-02-27T19:59:30.641Z,69.77
2019-02-27T20:01:57.320Z,70.12
2019-02-27T20:04:24.169Z,70.49
2019-02-27T20:06:53.886Z,70.68
2019-02-27T20:09:22.364Z,70.91
2019-02-27T20:11:49.279Z,71.26
2019-02-27T20:14:15.949Z,71.08
2019-02-27T20:16:42.859Z,72.62
2019-02-27T20:19:09.651Z,71.72
2019-02-27T20:21:36.383Z,71.96
2019-02-27T20:24:03.200Z,71.91
2019-02-27T20:26:30.029Z,72.07
2019-02-27T20:28:56.837Z,72.98
2019-02-27T20:31:23.516Z,72.27
2019-02-27T20:33:50.287Z,72.40
2019-02-27T20:36:17.167Z,72.73
2019-02-27T20:38:47.500Z,73.74
2019-02-27T20:41:13.333Z,73.34
2019-02-27T20:43:40.221Z,73.13
2019-02-27T20:46:07.015Z,73.67
2019-02-27T20:48:36.012Z,73.79
2019-02-27T20:51:06.024Z,73.65
2019-02-27T20:53:32.142Z,73.75
2019-02-27T20:55:59.094Z,73.95
2019-02-27T20:58:25.784Z,73.92
2019-02-27T21:00:52.770Z,74.69
2019-02-27T21:03:20.600Z,74.67
2019-02-27T21:05:48.592Z,74.55
2019-02-27T21:08:15.420Z,74.81
2019-02-27T21:10:42.206Z,74.90
2019-02-27T21:13:09.070Z,74.79
2019-02-27T21:15:38.965Z,75.50
2019-02-27T21:18:05.751Z,75.16
2019-02-27T21:20:33.640Z,75.04
2019-02-27T21:23:06.908Z,75.78
2019-02-27T21:25:33.910Z,75.41
2019-02-27T21:28:00.748Z,75.29
2019-02-27T21:30:27.787Z,74.83
2019-02-27T21:32:54.566Z,74.88
2019-02-27T21:35:21.471Z,74.88
2019-02-27T21:37:48.455Z,75.09
2019-02-27T21:40:15.316Z,75.26
2019-02-27T21:42:42.326Z,75.26
2019-02-27T21:45:11.431Z,75.58
2019-02-27T21:47:38.241Z,76.26
2019-02-27T21:50:06.975Z,76.27
2019-02-27T21:52:35.105Z,76.07
2019-02-27T21:55:02.919Z,76.32
2019-02-27T21:57:30.813Z,76.13
2019-02-27T21:59:57.602Z,76.53
2019-02-27T22:02:27.246Z,76.70
2019-02-27T22:04:53.422Z,77.37
2019-02-27T22:07:20.370Z,77.28
2019-02-27T22:09:48.063Z,77.18
2019-02-27T22:12:14.893Z,77.04
2019-02-27T22:14:41.755Z,77.60
2019-02-27T22:17:08.686Z,77.61
2019-02-27T22:19:35.579Z,77.67
2019-02-27T22:22:05.237Z,77.75
2019-02-27T22:24:32.117Z,77.62
2019-02-27T22:26:59.466Z,77.64
2019-02-27T22:29:27.918Z,78.35
2019-02-27T22:31:54.898Z,77.91
2019-02-27T22:34:21.755Z,78.02
2019-02-27T22:36:50.803Z,78.39
2019-02-27T22:39:17.499Z,78.67
2019-02-27T22:41:45.400Z,78.72
2019-02-27T22:44:13.849Z,78.42
2019-02-27T22:46:40.967Z,78.77
2019-02-27T22:49:08.796Z,78.84
2019-02-27T22:51:35.552Z,78.99
2019-02-27T22:54:02.884Z,78.89
2019-02-27T22:56:29.764Z,79.06
2019-02-27T22:58:59.376Z,79.27
2019-02-27T23:01:34.147Z,79.22
2019-02-27T23:04:05.251Z,79.48
2019-02-27T23:06:32.164Z,79.56
2019-02-27T23:08:58.975Z,80.06
2019-02-27T23:11:25.846Z,79.60
2019-02-27T23:13:52.509Z,80.02
2019-02-27T23:16:19.720Z,79.99
2019-02-27T23:18:46.585Z,79.88
2019-02-27T23:21:13.291Z,80.12
2019-02-27T23:23:39.941Z,80.24
2019-02-27T23:26:06.725Z,80.46
2019-02-27T23:28:34.714Z,80.86
2019-02-27T23:31:02.242Z,80.77
2019-02-27T23:33:29.247Z,82.42
2019-02-27T23:35:56.071Z,82.01
2019-02-27T23:38:22.755Z,82.57
2019-02-27T23:40:50.146Z,83.79
2019-02-27T23:43:16.938Z,83.71
2019-02-27T23:45:44.493Z,84.47
2019-02-27T23:48:11.846Z,84.52
2019-02-27T23:50:38.522Z,83.98
2019-02-27T23:53:05.238Z,83.67
2019-02-27T23:55:32.031Z,83.83
2019-02-27T23:57:58.688Z,83.56
